Time;durP1;ratioP1;P1;durP2;ratioP2;P2;SDS_P1;SDS_P2;PMS_P1;PMS_P2;Temp;Humidity;BMP_temperature;BMP_pressure;BME280_temperature;BME280_humidity;BME280_pressure;Samples;Min_cycle;Max_cycle;Signal;HPM_P1;HPM_P2
2023/01/16 00:00:29;;;;;;;75.60;60.35;;;;;;;7.37;88.37;100342.78;5030900;28;20045;-80
2023/01/16 00:03:01;;;;;;;84.35;64.57;;;;;;;7.34;88.25;100354.41;5035044;28;20090;-76
2023/01/16 00:05:27;;;;;;;80.80;61.08;;;;;;;7.26;88.09;100341.00;5028598;28;20363;-80
2023/01/16 00:07:57;;;;;;;75.63;60.75;;;;;;;7.17;88.25;100326.69;5031304;28;20049;-77
2023/01/16 00:10:26;;;;;;;80.82;62.70;;;;;;;7.22;89.17;100318.41;5026217;28;20099;-77
2023/01/16 00:12:53;;;;;;;81.25;63.55;;;;;;;7.35;88.57;100327.03;5031749;28;20107;-79
2023/01/16 00:15:23;;;;;;;79.07;61.45;;;;;;;7.17;88.38;100283.63;5028650;28;20375;-79
2023/01/16 00:17:52;;;;;;;79.38;62.55;;;;;;;7.13;88.10;100287.47;5036297;28;20049;-79
2023/01/16 00:20:24;;;;;;;78.43;62.00;;;;;;;7.22;88.35;100294.66;5033826;28;20144;-80
2023/01/16 00:23:02;;;;;;;75.35;61.65;;;;;;;7.21;88.43;100307.03;5035040;28;20045;-78
2023/01/16 00:25:29;;;;;;;75.45;58.80;;;;;;;7.26;88.48;100310.13;5032624;28;20071;-78
2023/01/16 00:27:58;;;;;;;76.25;59.70;;;;;;;7.10;88.16;100272.72;5035497;28;20389;-79
2023/01/16 00:30:24;;;;;;;69.95;56.55;;;;;;;7.41;88.00;100323.91;5029388;28;20053;-79
2023/01/16 00:32:53;;;;;;;74.80;59.28;;;;;;;7.05;87.49;100259.88;5018902;28;20106;-80
2023/01/16 00:35:26;;;;;;;72.80;57.78;;;;;;;7.37;87.41;100311.91;5028283;28;20048;-78
2023/01/16 00:38:01;;;;;;;78.20;59.33;;;;;;;7.09;87.53;100271.03;5027998;28;20462;-78
2023/01/16 00:40:28;;;;;;;76.25;58.80;;;;;;;7.25;88.25;100310.25;5036582;28;20103;-78
2023/01/16 00:43:05;;;;;;;76.53;58.20;;;;;;;7.25;88.31;100297.88;5029533;28;20474;-78
2023/01/16 00:45:35;;;;;;;78.93;59.88;;;;;;;7.15;88.42;100282.91;5031880;28;20053;-76
2023/01/16 00:48:03;;;;;;;77.13;60.55;;;;;;;7.33;88.03;100307.84;5030609;28;20145;-80
2023/01/16 00:50:33;;;;;;;68.50;54.03;;;;;;;7.39;87.90;100295.94;5033364;28;20704;-77
2023/01/16 00:53:00;;;;;;;77.97;60.42;;;;;;;6.91;87.67;100219.72;5024171;28;20080;-78
2023/01/16 00:55:41;;;;;;;76.00;59.38;;;;;;;7.37;87.57;100284.66;5013302;28;20072;-78
2023/01/16 00:58:08;;;;;;;73.03;55.95;;;;;;;7.36;86.91;100275.09;5032724;28;20490;-79
2023/01/16 01:00:38;;;;;;;73.60;57.78;;;;;;;6.80;87.45;100207.38;5036252;28;20081;-78
2023/01/16 01:03:08;;;;;;;75.32;57.10;;;;;;;7.24;88.00;100288.28;5034826;28;20057;-78
2023/01/16 01:05:37;;;;;;;78.30;59.05;;;;;;;6.75;88.44;100201.63;5035156;28;20316;-78
2023/01/16 01:08:22;;;;;;;74.55;59.63;;;;;;;7.12;88.24;100262.03;5031970;28;20045;-78
2023/01/16 01:10:49;;;;;;;76.63;58.53;;;;;;;7.17;88.33;100262.50;5033592;28;20045;-77
2023/01/16 01:13:17;;;;;;;76.60;58.42;;;;;;;7.11;87.96;100252.44;5034176;28;20494;-77
2023/01/16 01:15:53;;;;;;;76.32;56.92;;;;;;;7.21;88.04;100263.94;5034729;28;20379;-78
2023/01/16 01:18:24;;;;;;;85.20;61.25;;;;;;;7.32;87.37;100292.97;5029545;28;20052;-78
2023/01/16 01:20:59;;;;;;;82.97;61.58;;;;;;;7.32;87.26;100271.84;4997778;28;20418;-79
2023/01/16 01:23:32;;;;;;;78.13;58.83;;;;;;;7.01;87.29;100221.47;5011834;28;20431;-78
2023/01/16 01:26:12;;;;;;;84.28;60.55;;;;;;;7.30;87.96;100279.03;5030565;28;20059;-78
2023/01/16 01:28:43;;;;;;;89.55;61.72;;;;;;;6.90;87.79;100207.50;5030173;28;20048;-77
2023/01/16 01:31:12;;;;;;;83.30;62.22;;;;;;;7.18;87.72;100256.25;5023374;28;20475;-79
2023/01/16 01:33:51;;;;;;;92.45;64.57;;;;;;;7.14;87.70;100252.22;5003467;28;20060;-78
2023/01/16 01:36:21;;;;;;;;;;;;;;;7.19;87.36;100268.50;5018204;28;20084;-77
2023/01/16 01:38:52;;;;;;;89.32;63.13;;;;;;;7.14;88.13;100252.22;5013201;28;20257;-76
2023/01/16 01:41:26;;;;;;;103.05;68.13;;;;;;;7.17;87.90;100246.66;5011549;28;20550;-78
2023/01/16 01:44:01;;;;;;;99.50;69.17;;;;;;;7.19;87.66;100239.47;5004892;28;20049;-77
2023/01/16 01:46:45;;;;;;;99.90;67.03;;;;;;;7.20;87.94;100233.22;5007200;28;20322;-77
2023/01/16 01:49:23;;;;;;;109.15;71.50;;;;;;;7.19;87.70;100236.84;5007473;28;20124;-76
2023/01/16 01:51:59;;;;;;;105.05;70.68;;;;;;;7.11;86.97;100204.91;5009059;28;20052;-75
2023/01/16 01:54:38;;;;;;;118.45;75.68;;;;;;;6.92;87.58;100185.28;5002543;28;20466;-78
2023/01/16 01:57:15;;;;;;;116.93;76.47;;;;;;;7.18;87.67;100240.41;5007878;28;20115;-78
2023/01/16 01:59:51;;;;;;;118.82;75.97;;;;;;;6.99;88.09;100210.25;5006527;28;20096;-76
2023/01/16 02:02:23;;;;;;;118.57;77.03;;;;;;;7.02;88.20;100211.78;5005033;28;20076;-76
2023/01/16 02:04:56;;;;;;;127.38;78.45;;;;;;;7.20;87.59;100230.56;5004659;28;20057;-78
2023/01/16 02:07:28;;;;;;;133.60;78.85;;;;;;;6.84;88.01;100163.94;5009175;28;20134;-77
2023/01/16 02:10:05;;;;;;;125.63;79.95;;;;;;;7.19;87.85;100218.34;5011244;28;20056;-78
2023/01/16 02:12:33;;;;;;;122.93;76.97;;;;;;;7.13;87.62;100210.91;5025004;28;20138;-77
2023/01/16 02:15:13;;;;;;;129.98;77.00;;;;;;;7.14;87.88;100199.41;5012293;28;20067;-77
2023/01/16 02:20:35;;;;;;;135.20;80.93;;;;;;;7.26;88.73;100193.13;5026699;28;20083;-78
2023/01/16 02:23:28;;;;;;;;;;;;;;;7.22;87.47;100192.53;5007580;28;20698;-78
2023/01/16 02:26:32;;;;;;;137.15;78.13;;;;;;;7.06;88.04;100171.84;4991519;28;19970;-79
2023/01/16 02:29:21;;;;;;;132.52;81.25;;;;;;;6.85;87.85;100115.50;5029080;28;20437;-77
2023/01/16 02:32:17;;;;;;;144.20;84.32;;;;;;;7.21;88.27;100176.84;5026816;28;20114;-78
2023/01/16 02:34:54;;;;;;;145.38;82.70;;;;;;;7.22;88.42;100175.84;5027541;28;20140;-77
2023/01/16 02:37:41;;;;;;;159.35;90.22;;;;;;;7.28;87.73;100176.19;5026284;28;20144;-79
2023/01/16 02:40:23;;;;;;;156.32;89.43;;;;;;;7.00;87.46;100122.16;5023180;28;20053;-77
2023/01/16 02:43:08;;;;;;;161.13;91.07;;;;;;;6.64;87.76;100071.41;5031444;28;20049;-79
2023/01/16 02:45:36;;;;;;;156.07;88.90;;;;;;;7.28;87.46;100176.19;5024930;28;20385;-78
2023/01/16 02:48:24;;;;;;;149.27;87.68;;;;;;;7.22;87.13;100165.28;5025871;28;20490;-78
2023/01/16 02:51:02;;;;;;;154.32;89.68;;;;;;;7.15;87.90;100164.13;5023749;28;20319;-78
2023/01/16 02:53:44;;;;;;;159.02;91.65;;;;;;;7.23;88.25;100166.97;5027977;28;20487;-76
2023/01/16 02:56:45;;;;;;;152.70;89.07;;;;;;;6.95;88.13;100115.59;5032783;28;20045;-77
2023/01/16 02:59:14;;;;;;;154.43;89.50;;;;;;;6.91;88.17;100080.69;5022028;28;20044;-77
2023/01/16 03:01:46;;;;;;;153.32;89.38;;;;;;;7.13;87.31;100103.50;5031947;28;20426;-76
2023/01/16 03:04:35;;;;;;;156.32;88.75;;;;;;;7.28;87.73;100130.44;5031276;28;20136;-79
2023/01/16 03:07:46;;;;;;;157.05;91.28;;;;;;;7.29;87.54;100129.50;5028758;28;20041;-78
2023/01/16 03:10:48;;;;;;;160.52;91.63;;;;;;;7.28;87.52;100120.75;5019906;28;20367;-79
2023/01/16 03:13:50;;;;;;;156.13;91.13;;;;;;;7.28;87.45;100120.75;4996959;28;20278;-80
2023/01/16 03:16:34;;;;;;;152.85;90.57;;;;;;;7.23;87.79;100115.00;4978145;28;20284;-78
2023/01/16 03:19:28;;;;;;;159.60;89.75;;;;;;;7.23;86.99;100116.78;4983577;28;20041;-79
2023/01/16 03:22:41;;;;;;;152.98;90.38;;;;;;;7.11;87.33;100100.16;5005853;28;20499;-78
2023/01/16 03:25:50;;;;;;;158.10;89.05;;;;;;;7.22;87.29;100113.31;5025146;28;20099;-78
2023/01/16 03:28:58;;;;;;;156.27;89.38;;;;;;;6.45;86.36;99972.84;5030751;28;20037;-79
2023/01/16 03:31:42;;;;;;;155.68;88.53;;;;;;;7.16;86.12;100091.88;5032248;28;20053;-76
2023/01/16 03:34:24;;;;;;;151.30;86.00;;;;;;;7.25;85.72;100099.03;5031257;28;20311;-76
2023/01/16 03:37:03;;;;;;;162.15;92.05;;;;;;;7.20;85.64;100101.22;5031713;28;20057;-76
2023/01/16 03:39:43;;;;;;;162.98;94.13;;;;;;;6.97;86.09;100066.16;5025980;28;20048;-77
2023/01/16 03:42:34;;;;;;;165.35;91.97;;;;;;;6.96;86.76;100070.59;4972097;28;20460;-78
2023/01/16 03:45:15;;;;;;;162.50;92.10;;;;;;;6.61;86.74;100018.91;4967539;28;20588;-78
2023/01/16 03:47:49;;;;;;;176.70;93.72;;;;;;;7.07;86.50;100078.47;4965700;28;20081;-76
2023/01/16 03:50:20;;;;;;;178.50;98.22;;;;;;;7.11;85.81;100072.94;4966359;28;20120;-78
2023/01/16 03:52:56;;;;;;;180.68;99.10;;;;;;;6.24;85.59;99931.44;4960863;28;20395;-76
2023/01/16 03:55:53;;;;;;;173.63;98.88;;;;;;;6.67;86.34;100022.03;4945884;28;20082;-78
2023/01/16 03:58:52;;;;;;;181.00;97.45;;;;;;;6.81;86.87;100040.19;4916068;28;20258;-79
2023/01/16 04:01:28;;;;;;;184.63;99.47;;;;;;;6.49;86.86;99988.28;4902059;28;20506;-76
2023/01/16 04:04:35;;;;;;;176.27;94.18;;;;;;;6.95;86.89;100057.53;4941814;28;20057;-78
2023/01/16 04:07:20;;;;;;;174.70;96.30;;;;;;;6.92;86.80;100060.41;4948645;28;20634;-79
2023/01/16 04:10:00;;;;;;;170.35;97.03;;;;;;;6.32;87.21;99955.38;4929703;28;20259;-79
2023/01/16 04:12:33;;;;;;;180.73;95.07;;;;;;;6.88;87.17;100040.53;4973194;28;20046;-78
2023/01/16 04:15:06;;;;;;;182.70;98.25;;;;;;;6.91;86.77;100035.81;4947796;28;20061;-78
2023/01/16 04:17:50;;;;;;;173.00;98.03;;;;;;;6.68;86.69;99992.06;4972482;28;20433;-78
2023/01/16 04:20:33;;;;;;;173.85;91.00;;;;;;;6.77;87.44;99997.41;4975711;28;20398;-79
2023/01/16 04:23:10;;;;;;;176.18;94.68;;;;;;;6.84;86.66;100010.91;5019000;28;20102;-78
2023/01/16 04:25:45;;;;;;;164.18;91.35;;;;;;;6.89;87.14;100011.38;4984297;28;20316;-77
2023/01/16 04:28:16;;;;;;;173.25;94.47;;;;;;;6.29;86.83;99913.47;4966494;28;20321;-79
2023/01/16 04:30:47;;;;;;;169.80;93.25;;;;;;;6.97;86.78;100014.22;4984804;28;20483;-79
2023/01/16 04:33:14;;;;;;;169.55;94.60;;;;;;;6.94;87.28;100006.56;4977879;28;20079;-77
2023/01/16 04:35:43;;;;;;;162.57;92.30;;;;;;;7.05;87.20;100011.78;4966494;28;20312;-78
2023/01/16 04:38:11;;;;;;;162.77;92.15;;;;;;;7.04;86.65;99999.56;4999423;28;20800;-78
2023/01/16 04:40:38;;;;;;;170.35;90.95;;;;;;;6.76;86.23;99950.03;4978636;28;20067;-78
2023/01/16 04:43:08;;;;;;;160.05;92.97;;;;;;;7.04;86.67;99994.28;4965414;28;20444;-79
2023/01/16 04:45:42;;;;;;;174.95;94.82;;;;;;;6.78;86.42;99956.88;4965705;28;20506;-79
2023/01/16 04:48:15;;;;;;;151.50;85.93;;;;;;;6.96;86.84;99980.88;4947757;28;20512;-78
2023/01/16 04:50:49;;;;;;;172.88;90.95;;;;;;;6.81;87.04;99945.22;4982323;28;20052;-79
2023/01/16 04:53:27;;;;;;;155.38;87.57;;;;;;;6.99;86.60;99972.72;4999541;28;20076;-79
2023/01/16 04:56:14;;;;;;;162.82;89.28;;;;;;;7.06;86.89;99971.22;4984251;28;20056;-79
2023/01/16 04:58:52;;;;;;;162.45;86.80;;;;;;;7.17;86.25;99983.50;4925108;28;20338;-80
2023/01/16 05:01:34;;;;;;;154.57;84.40;;;;;;;7.23;85.96;99982.16;4962240;28;20328;-79
2023/01/16 05:04:08;;;;;;;155.65;85.38;;;;;;;7.10;86.17;99955.97;4979218;28;20580;-80
2023/01/16 05:06:41;;;;;;;156.10;84.45;;;;;;;7.18;86.06;99979.06;5001291;28;20057;-79
2023/01/16 05:09:08;;;;;;;147.38;82.40;;;;;;;7.03;85.52;99960.91;5014439;28;20454;-78
2023/01/16 05:11:38;;;;;;;154.10;84.10;;;;;;;7.16;85.86;99981.00;5006343;28;20053;-79
2023/01/16 05:14:12;;;;;;;156.57;82.40;;;;;;;7.04;86.15;99957.31;4952956;28;20148;-78
2023/01/16 05:16:44;;;;;;;161.77;85.78;;;;;;;7.11;86.36;99967.34;5003906;28;20053;-78
2023/01/16 05:19:16;;;;;;;155.63;86.07;;;;;;;7.17;86.28;99972.13;5007952;28;20076;-78
2023/01/16 05:21:45;;;;;;;168.00;87.05;;;;;;;7.17;85.91;99972.94;4998179;28;20105;-79
2023/01/16 05:24:17;;;;;;;172.15;89.68;;;;;;;7.17;85.42;99969.47;4957186;28;20244;-79
2023/01/16 05:26:46;;;;;;;174.57;90.18;;;;;;;7.22;85.24;99980.50;4976491;28;20521;-76
2023/01/16 05:29:13;;;;;;;175.70;91.50;;;;;;;7.08;85.53;99963.16;4972398;28;20056;-76
2023/01/16 05:31:45;;;;;;;173.52;90.50;;;;;;;7.12;85.51;99959.31;4921979;28;20307;-80
2023/01/16 05:34:13;;;;;;;186.70;94.57;;;;;;;7.19;85.55;99968.38;4953071;28;20360;-77
2023/01/16 05:36:39;;;;;;;169.80;89.30;;;;;;;7.17;85.58;99962.41;4921931;28;20297;-81
2023/01/16 05:39:10;;;;;;;175.43;88.25;;;;;;;7.21;85.04;99957.72;4922167;28;20388;-78
2023/01/16 05:41:55;;;;;;;180.35;93.32;;;;;;;6.91;84.99;99911.81;4926316;28;20226;-78
2023/01/16 05:44:31;;;;;;;175.45;91.10;;;;;;;7.04;85.52;99935.38;4947463;28;20049;-78
2023/01/16 05:47:06;;;;;;;172.38;88.72;;;;;;;7.16;85.21;99954.59;4954699;28;20175;-79
2023/01/16 05:49:44;;;;;;;164.80;86.45;;;;;;;7.16;85.42;99965.16;4930668;28;20351;-79
2023/01/16 05:52:17;;;;;;;165.20;84.07;;;;;;;7.17;85.78;99966.84;4951699;28;20424;-81
2023/01/16 05:55:10;;;;;;;160.50;87.20;;;;;;;7.19;85.56;99972.84;4982562;28;20067;-79
2023/01/16 05:58:02;;;;;;;168.70;86.32;;;;;;;7.09;85.45;99948.16;4953584;28;20379;-80
2023/01/16 06:00:46;;;;;;;160.60;82.78;;;;;;;7.16;85.60;99959.88;4938857;28;20057;-79
2023/01/16 06:03:18;;;;;;;159.73;83.65;;;;;;;7.15;85.63;99963.50;4957132;28;20598;-78
2023/01/16 06:06:01;;;;;;;168.90;87.13;;;;;;;7.16;85.75;99959.88;4951635;28;20046;-78
2023/01/16 06:08:29;;;;;;;150.38;83.10;;;;;;;6.97;86.30;99927.13;4965973;28;20056;-78
2023/01/16 06:10:56;;;;;;;162.65;84.35;;;;;;;7.26;86.35;99971.34;4966847;28;20045;-77
2023/01/16 06:13:24;;;;;;;165.40;86.13;;;;;;;7.26;85.62;99958.16;4981168;28;20235;-79
2023/01/16 06:15:55;;;;;;;156.02;82.47;;;;;;;7.28;85.44;99953.53;4964531;28;20273;-78
2023/01/16 06:18:31;;;;;;;171.90;86.63;;;;;;;7.02;85.67;99911.75;4923610;28;20227;-78
2023/01/16 06:21:08;;;;;;;165.52;84.70;;;;;;;7.14;85.51;99922.25;4973779;28;20051;-75
2023/01/16 06:23:35;;;;;;;158.02;80.40;;;;;;;7.29;85.45;99949.97;4973381;28;20045;-78
2023/01/16 06:26:04;;;;;;;169.88;83.93;;;;;;;7.45;85.85;99938.91;5007732;28;20052;-77
2023/01/16 06:28:31;;;;;;;159.50;80.95;;;;;;;7.00;85.17;99855.63;5013300;28;20045;-79
2023/01/16 06:30:58;;;;;;;151.40;79.57;;;;;;;7.53;85.63;99940.91;5008207;28;20106;-79
2023/01/16 06:33:31;;;;;;;158.32;81.22;;;;;;;7.49;85.21;99922.66;5015664;28;20114;-80
2023/01/16 06:36:05;;;;;;;151.07;78.00;;;;;;;7.53;85.01;99922.41;5013266;28;20135;-79
2023/01/16 06:38:37;;;;;;;147.35;76.38;;;;;;;7.60;84.54;99929.66;5017651;28;20438;-79
2023/01/16 06:41:09;;;;;;;154.77;79.53;;;;;;;7.51;84.92;99908.50;4977399;28;20487;-79
2023/01/16 06:43:37;;;;;;;151.93;79.68;;;;;;;7.49;84.50;99908.63;4998575;28;20050;-77
2023/01/16 06:46:07;;;;;;;147.05;75.38;;;;;;;7.45;85.35;99901.94;5005231;28;20407;-78
2023/01/16 06:48:38;;;;;;;152.55;77.97;;;;;;;7.53;85.10;99909.19;4999918;28;20530;-79
2023/01/16 06:51:04;;;;;;;145.43;76.03;;;;;;;7.54;84.90;99901.13;4999074;28;20425;-77
2023/01/16 06:53:31;;;;;;;154.27;76.72;;;;;;;7.57;84.36;99897.38;4992921;28;20430;-78
2023/01/16 06:56:12;;;;;;;149.82;75.70;;;;;;;7.52;84.88;99886.38;5019221;28;20055;-77
2023/01/16 06:58:39;;;;;;;144.80;76.80;;;;;;;7.58;84.01;99907.81;5016204;28;20053;-77
2023/01/16 07:01:06;;;;;;;146.75;73.93;;;;;;;7.59;84.15;99904.19;5019231;28;20071;-79
2023/01/16 07:03:40;;;;;;;133.13;70.85;;;;;;;7.45;84.37;99886.06;4996595;28;20427;-79
2023/01/16 07:06:18;;;;;;;132.63;67.72;;;;;;;7.52;84.34;99884.56;5016429;28;20744;-76
2023/01/16 07:08:50;;;;;;;136.50;66.40;;;;;;;7.64;83.72;99902.00;5013864;28;20057;-79
2023/01/16 07:11:20;;;;;;;132.57;68.03;;;;;;;7.45;83.97;99868.44;5014847;28;20053;-79
2023/01/16 07:13:46;;;;;;;135.10;65.80;;;;;;;7.63;84.22;99900.31;5026700;28;20045;-79
2023/01/16 07:22:35;;;;;;;122.35;63.35;;;;;;;7.42;83.66;99834.38;5025117;28;20065;-78
2023/01/16 07:25:09;;;;;;;130.02;60.10;;;;;;;7.29;83.63;99802.09;5007425;28;20150;-77
2023/01/16 07:27:35;;;;;;;127.68;61.47;;;;;;;7.74;83.12;99869.47;4989617;28;20395;-78
2023/01/16 07:30:03;;;;;;;125.53;62.85;;;;;;;7.62;82.52;99861.69;4962918;28;20498;-79
2023/01/16 07:32:29;;;;;;;117.50;59.75;;;;;;;7.73;82.74;99876.56;4963867;28;20132;-79
2023/01/16 07:35:07;;;;;;;122.40;61.22;;;;;;;7.69;83.26;99880.44;4992763;28;20077;-78
2023/01/16 07:37:45;;;;;;;117.70;59.22;;;;;;;7.20;83.67;99801.09;5030593;28;20056;-79
2023/01/16 07:40:20;;;;;;;123.35;59.47;;;;;;;7.58;83.67;99864.72;4958460;28;20418;-78
2023/01/16 07:42:53;;;;;;;116.72;57.58;;;;;;;6.98;84.09;99769.63;5002733;28;20627;-79
2023/01/16 07:45:41;;;;;;;115.70;55.33;;;;;;;7.62;83.29;99866.13;4940190;28;20208;-78
2023/01/16 07:48:25;;;;;;;117.63;55.65;;;;;;;7.53;83.83;99851.94;4944489;28;20048;-81
2023/01/16 07:51:00;;;;;;;107.68;55.08;;;;;;;7.66;83.48;99865.72;4894486;28;20067;-80
2023/01/16 07:53:30;;;;;;;119.55;57.50;;;;;;;7.28;83.84;99790.72;4966846;28;20563;-78
2023/01/16 07:56:03;;;;;;;117.22;54.90;;;;;;;7.63;83.57;99841.38;4992704;28;20333;-78
2023/01/16 07:58:35;;;;;;;108.70;52.03;;;;;;;7.64;83.75;99843.03;4992163;28;20079;-79
2023/01/16 08:01:05;;;;;;;103.20;51.28;;;;;;;7.40;83.53;99794.09;4947764;28;20103;-78
2023/01/16 08:03:38;;;;;;;99.95;51.20;;;;;;;7.33;82.67;99766.53;4979930;28;20094;-77
2023/01/16 08:06:10;;;;;;;108.45;51.75;;;;;;;7.61;82.57;99801.06;4924369;28;20453;-78
2023/01/16 08:08:52;;;;;;;107.18;51.78;;;;;;;7.18;82.65;99750.22;4894839;28;20234;-77
2023/01/16 08:14:38;;;;;;;108.00;51.97;;;;;;;7.62;82.79;99822.06;4947839;28;20071;-78
2023/01/16 08:17:11;;;;;;;97.93;47.58;;;;;;;7.54;82.73;99797.28;4970693;28;20049;-79
2023/01/16 08:19:56;;;;;;;94.90;47.50;;;;;;;7.53;82.75;99793.00;5004357;28;20381;-78
2023/01/16 08:22:22;;;;;;;94.57;46.65;;;;;;;7.30;83.44;99740.41;4986533;28;20041;-79
2023/01/16 08:24:58;;;;;;;101.18;47.53;;;;;;;7.70;83.69;99792.31;5008066;28;20037;-78
2023/01/16 08:27:40;;;;;;;98.43;45.45;;;;;;;7.51;83.19;99761.44;5015937;28;20107;-79
2023/01/16 08:30:08;;;;;;;94.57;45.70;;;;;;;7.78;83.27;99792.44;5008089;28;20621;-78
2023/01/16 08:32:42;;;;;;;96.68;47.85;;;;;;;7.60;83.20;99763.25;5010539;28;20037;-77
2023/01/16 08:35:18;;;;;;;97.28;47.10;;;;;;;7.74;82.79;99774.38;5012824;28;20238;-77
2023/01/16 08:37:53;;;;;;;93.13;44.47;;;;;;;7.32;82.52;99700.66;5004351;28;20064;-79
2023/01/16 08:40:32;;;;;;;88.85;44.78;;;;;;;8.02;82.75;99791.22;4993940;28;20045;-78
2023/01/16 08:51:33;;;;;;;87.90;44.78;;;;;;;8.06;81.89;99766.16;5006516;28;20469;-76
2023/01/16 08:54:07;;;;;;;84.23;42.00;;;;;;;8.06;82.84;99768.81;4996942;28;20090;-77
2023/01/16 08:56:42;;;;;;;90.90;41.30;;;;;;;8.11;82.45;99777.97;4986803;28;20683;-79
2023/01/16 08:59:13;;;;;;;82.43;41.60;;;;;;;8.10;82.61;99770.19;4982229;28;20491;-79
2023/01/16 09:01:42;;;;;;;83.25;40.78;;;;;;;8.08;82.24;99762.41;5003752;28;20446;-80
2023/01/16 09:04:17;;;;;;;76.40;39.45;;;;;;;8.14;82.84;99755.72;4997893;28;20056;-77
2023/01/16 09:07:04;;;;;;;77.63;41.35;;;;;;;8.31;81.29;99762.09;5005132;28;20350;-78
2023/01/16 09:09:37;;;;;;;74.28;39.40;;;;;;;8.30;81.85;99734.81;4977245;28;20219;-77
2023/01/16 09:15:03;;;;;;;66.43;36.45;;;;;;;9.00;79.96;99734.44;5003700;28;20316;-77
2023/01/16 09:17:30;;;;;;;69.40;38.40;;;;;;;9.35;79.01;99757.50;5019912;28;20140;-77
2023/01/16 09:20:00;;;;;;;73.43;37.65;;;;;;;9.49;77.60;99742.94;5021505;28;20114;-80
2023/01/16 09:22:27;;;;;;;72.22;34.42;;;;;;;9.55;76.08;99747.59;5027784;28;20057;-76
2023/01/16 09:25:05;;;;;;;66.60;36.05;;;;;;;9.47;76.40;99741.41;5017975;28;20040;-79
2023/01/16 09:27:36;;;;;;;71.05;36.50;;;;;;;9.12;75.73;99685.56;5003633;28;20052;-79
2023/01/16 09:30:09;;;;;;;63.38;31.25;;;;;;;9.38;75.92;99736.00;4960722;28;20496;-80
2023/01/16 09:32:46;;;;;;;62.23;34.40;;;;;;;9.50;76.00;99736.63;4994037;28;20272;-80
2023/01/16 09:35:26;;;;;;;64.72;31.92;;;;;;;9.54;76.11;99713.31;5016101;28;20128;-78
2023/01/16 09:37:58;;;;;;;66.22;35.13;;;;;;;9.65;75.77;99726.34;4991252;28;20057;-77
2023/01/16 09:43:48;;;;;;;69.85;33.72;;;;;;;9.55;74.53;99731.72;4985043;28;20049;-79
2023/01/16 09:46:29;;;;;;;60.90;32.97;;;;;;;9.43;75.08;99718.84;4998855;28;20057;-79
2023/01/16 09:49:15;;;;;;;69.13;33.50;;;;;;;9.45;75.21;99716.88;5008884;28;20554;-78
2023/01/16 09:58:48;;;;;;;59.05;30.42;;;;;;;11.51;69.29;99715.25;4931124;28;20049;-77
2023/01/16 10:01:29;;;;;;;65.10;31.13;;;;;;;11.48;68.62;99688.97;4941900;28;20393;-77
2023/01/16 10:04:24;;;;;;;52.92;29.65;;;;;;;11.60;67.64;99663.72;4945057;28;20045;-79
2023/01/16 10:07:25;;;;;;;59.40;29.80;;;;;;;11.68;66.99;99666.41;4941161;28;20363;-77
2023/01/16 10:10:34;;;;;;;56.75;30.88;;;;;;;11.92;66.37;99656.78;4910447;28;20407;-77
2023/01/16 10:13:45;;;;;;;59.13;31.15;;;;;;;11.75;66.01;99669.22;4935449;28;20647;-78
2023/01/16 10:17:11;;;;;;;65.28;30.65;;;;;;;11.90;66.62;99672.09;4897341;28;20435;-80
2023/01/16 10:20:08;;;;;;;55.45;29.83;;;;;;;11.31;67.64;99642.94;4917666;28;20266;-78
2023/01/16 10:23:04;;;;;;;56.70;28.20;;;;;;;11.45;67.46;99572.38;4935698;28;20135;-77
2023/01/16 10:26:18;;;;;;;59.40;28.90;;;;;;;11.58;66.51;99551.44;4929196;28;20157;-78
2023/01/16 10:29:01;;;;;;;56.50;29.38;;;;;;;11.63;67.10;99607.59;4934345;28;20049;-78
2023/01/16 10:31:46;;;;;;;53.40;29.17;;;;;;;11.98;66.44;99597.59;4951927;28;20429;-79
2023/01/16 10:35:00;;;;;;;60.20;29.50;;;;;;;11.93;65.91;99597.25;4944265;28;20053;-79
2023/01/16 10:37:46;;;;;;;55.38;27.88;;;;;;;11.55;67.22;99583.66;4919913;28;20180;-78
2023/01/16 10:49:35;;;;;;;58.70;27.35;;;;;;;11.78;66.62;99527.97;4913781;28;20506;-78
2023/01/16 10:52:12;;;;;;;51.50;28.35;;;;;;;12.23;65.18;99542.44;4939262;28;20440;-78
2023/01/16 10:55:17;;;;;;;58.17;28.73;;;;;;;12.23;64.71;99550.44;4979135;28;20080;-76
2023/01/16 10:57:54;;;;;;;67.50;32.45;;;;;;;11.70;66.52;99539.47;4986179;28;20218;-78
2023/01/16 11:00:39;;;;;;;62.97;33.15;;;;;;;11.85;65.58;99493.56;4954949;28;20099;-77
2023/01/16 11:03:39;;;;;;;58.35;28.60;;;;;;;12.30;65.51;99534.63;4954930;28;20227;-78
2023/01/16 11:06:29;;;;;;;63.40;30.23;;;;;;;12.19;65.38;99523.34;4965346;28;20041;-77
2023/01/16 11:09:36;;;;;;;63.03;32.33;;;;;;;12.23;64.97;99501.72;4977970;28;20415;-76
2023/01/16 11:20:44;;;;;;;66.88;32.50;;;;;;;10.96;68.24;99498.84;5012301;28;20049;-75
2023/01/16 11:23:46;;;;;;;60.92;31.58;;;;;;;10.94;69.33;99500.00;5019897;28;20071;-79
2023/01/16 11:26:14;;;;;;;72.20;34.53;;;;;;;11.35;68.71;99484.84;5026429;28;20053;-78
2023/01/16 11:28:53;;;;;;;61.70;31.77;;;;;;;11.39;67.21;99414.44;5019720;28;20053;-80
2023/01/16 11:31:34;;;;;;;81.60;38.38;;;;;;;11.04;68.16;99426.28;5015191;28;20337;-77
2023/01/16 11:34:14;;;;;;;60.05;31.42;;;;;;;11.60;67.99;99469.69;5015867;28;20053;-79
2023/01/16 11:36:42;;;;;;;68.82;34.85;;;;;;;11.18;68.84;99472.59;5018110;28;20779;-76
2023/01/16 11:39:22;;;;;;;79.72;35.92;;;;;;;10.76;68.28;99378.88;5018219;28;20364;-77
2023/01/16 11:46:01;;;;;;;62.33;32.40;;;;;;;11.55;68.43;99482.66;5019670;28;20501;-77
2023/01/16 11:47:43;;;;;;;73.53;32.65;;;;;;;11.55;67.76;99440.13;5017292;28;20045;-76
2023/01/16 11:50:38;;;;;;;80.45;39.72;;;;;;;10.54;68.81;99393.66;5016700;28;20045;-77
2023/01/16 11:53:04;;;;;;;65.85;32.30;;;;;;;11.46;68.65;99467.75;5033077;28;20226;-78
2023/01/16 11:55:47;;;;;;;72.88;34.63;;;;;;;11.74;67.12;99455.69;5025188;28;20053;-78
2023/01/16 11:58:35;;;;;;;70.35;35.25;;;;;;;11.70;67.54;99442.91;5031201;28;20041;-79
2023/01/16 12:02:15;;;;;;;80.38;40.03;;;;;;;11.67;67.29;99443.25;5013826;28;20045;-78
2023/01/16 12:04:23;;;;;;;65.97;32.55;;;;;;;11.29;68.11;99409.31;5016026;28;20048;-78
2023/01/16 12:07:09;;;;;;;68.05;32.80;;;;;;;11.80;67.51;99442.72;5033951;28;20140;-79
2023/01/16 12:10:10;;;;;;;66.22;33.42;;;;;;;12.02;66.22;99409.22;5030402;28;20045;-77
2023/01/16 12:15:39;;;;;;;66.40;33.42;;;;;;;12.02;65.62;99374.66;5034629;28;20063;-78
2023/01/16 12:18:19;;;;;;;67.10;34.83;;;;;;;12.13;66.27;99376.91;5032810;28;20294;-76
2023/01/16 12:20:46;;;;;;;84.43;36.42;;;;;;;12.08;66.47;99377.41;5016554;28;20049;-78
2023/01/16 12:23:45;;;;;;;110.50;35.75;;;;;;;11.95;66.73;99377.19;5026764;28;20045;-77
2023/01/16 12:27:05;;;;;;;91.13;35.17;;;;;;;11.37;67.95;99341.22;5022667;28;20049;-78
2023/01/16 12:30:06;;;;;;;;;;;;;;;;;;;;;
2023/01/16 12:33:09;;;;;;;77.72;36.70;;;;;;;11.12;69.43;99333.34;5025313;28;20339;-77
2023/01/16 12:35:50;;;;;;;86.28;36.08;;;;;;;11.20;69.51;99335.94;5019682;28;20045;-78
2023/01/16 12:38:24;;;;;;;80.95;39.72;;;;;;;10.72;71.08;99311.19;5026441;28;20048;-78
2023/01/16 12:44:41;;;;;;;66.13;33.92;;;;;;;10.13;73.84;99262.81;5029333;28;20044;-78
2023/01/16 12:47:25;;;;;;;85.33;45.83;;;;;;;10.61;72.48;99330.13;5019501;28;20830;-78
2023/01/16 12:50:22;;;;;;;82.85;42.53;;;;;;;10.50;73.65;99333.09;5013729;28;20164;-78
2023/01/16 12:53:32;;;;;;;106.93;56.60;;;;;;;10.68;73.89;99328.47;5022886;28;20085;-77
2023/01/16 12:56:17;;;;;;;97.00;49.90;;;;;;;10.50;74.20;99317.19;5022109;28;20397;-78
2023/01/16 12:58:54;;;;;;;90.70;44.25;;;;;;;10.36;72.72;99237.25;5019720;28;20107;-77
2023/01/16 13:01:41;;;;;;;120.55;61.72;;;;;;;10.71;73.61;99296.25;5010221;28;20102;-79
2023/01/16 13:04:23;;;;;;;120.97;64.65;;;;;;;10.84;73.96;99304.50;5031305;28;20056;-78
2023/01/16 13:06:56;;;;;;;95.53;51.95;;;;;;;10.74;73.18;99300.41;5015849;28;20057;-78
2023/01/16 13:15:50;;;;;;;106.57;54.25;;;;;;;10.36;75.42;99263.78;5015741;28;20136;-78
2023/01/16 13:18:25;;;;;;;88.38;47.70;;;;;;;10.60;74.91;99301.91;5013990;28;20544;-77